Merlot Commodore — WDD7653 — position and weather

sailwx.info

Track history (hours):
 
Tides and Currents Weather Stations Pressure Air Temp Water Temp Dewpoint Dewpoint Depression Visibility Wind Speed Wind Dir Waves Ship Positions

Merlot Commodore

Owner: Proescher, Ward H, Alameda, CA. More information available from US FCC via Universal Licensing System and Coast Guard Vessel Documentation Center.

Last reported at 2017-Oct-18 20:16 UTC. Time now 2017-Oct-19 18:40 UTC.
Position N 37°47' W 122°17'.

Length 24 m; draft 1.8 m.

Type: Passenger vessel. MMSI: 367189370.

Date/timePositionNaut miles runAvg speedWind from/ knotsBaromVisibWave heightAir tempDewpointWater temp
2017-Oct-18 20:16N 37°47' W 122°17'0 0.0
2017-Oct-18 20:01N 37°47' W 122°17'2 4.7
2017-Oct-18 19:31N 37°48' W 122°20'4 7.8
2017-Oct-18 19:01N 37°49' W 122°24'0 0.9
2017-Oct-18 18:30N 37°49' W 122°24'1 3.0
2017-Oct-18 18:01N 37°48' W 122°22'2 4.7
2017-Oct-18 17:30N 37°48' W 122°19'2 3.9
2017-Oct-18 17:00N 37°47' W 122°17'0 0.0
2017-Oct-18 16:30N 37°47' W 122°17'0 0.0
2017-Oct-18 15:09N 37°47' W 122°17'0 0.0
2017-Oct-18 15:00N 37°47' W 122°17'  
2017-Oct-15 04:18N 37°47' W 122°17'0 1.4
2017-Oct-15 04:00N 37°48' W 122°17'3 5.4
2017-Oct-15 03:31N 37°48' W 122°20'4 7.4
2017-Oct-15 03:00N 37°50' W 122°25'3 6.2
2017-Oct-15 02:30N 37°49' W 122°28'3 5.8
2017-Oct-15 02:00N 37°49' W 122°25'3 6.6
2017-Oct-15 01:30N 37°48' W 122°21'3 6.9
2017-Oct-15 01:01N 37°47' W 122°17'0 0.0
2017-Oct-15 00:30N 37°47' W 122°17'0 0.0
2017-Oct-14 23:59N 37°47' W 122°17'0 0.0
2017-Oct-14 18:50N 37°47' W 122°17'0 0.0
2017-Oct-14 18:30N 37°47' W 122°17'0 0.0
2017-Oct-14 18:00N 37°47' W 122°17'  
2017-Oct-08 23:59N 37°47' W 122°17'1 2.8
2017-Oct-08 23:31N 37°48' W 122°18'4 7.2
2017-Oct-08 23:00N 37°48' W 122°23'1 2.8
2017-Oct-08 22:30N 37°49' W 122°24'0 0.1
2017-Oct-08 22:00N 37°49' W 122°24'0 0.8
2017-Oct-08 21:30N 37°49' W 122°24'0 0.2
2017-Oct-08 21:00N 37°49' W 122°24'2 3.9
2017-Oct-08 20:30N 37°48' W 122°22'  
Track history (hours):
 
Tides and Currents Weather Stations Pressure Air Temp Water Temp Dewpoint Dewpoint Depression Visibility Wind Speed Wind Dir Waves Ship Positions

Merlot Commodore

Owner: Proescher, Ward H, Alameda, CA. More information available from US FCC via Universal Licensing System and Coast Guard Vessel Documentation Center.

Last reported at 2017-Oct-18 20:16 UTC. Time now 2017-Oct-19 18:40 UTC.
Position N 37°47' W 122°17'.

Length 24 m; draft 1.8 m.

Type: Passenger vessel. MMSI: 367189370.

Date/timePositionNaut miles runAvg speedWind from/ knotsBaromVisibWave heightAir tempDewpointWater temp
2017-Oct-18 20:16N 37°47' W 122°17'0 0.0
2017-Oct-18 20:01N 37°47' W 122°17'2 4.7
2017-Oct-18 19:31N 37°48' W 122°20'4 7.8
2017-Oct-18 19:01N 37°49' W 122°24'0 0.9
2017-Oct-18 18:30N 37°49' W 122°24'1 3.0
2017-Oct-18 18:01N 37°48' W 122°22'2 4.7
2017-Oct-18 17:30N 37°48' W 122°19'2 3.9
2017-Oct-18 17:00N 37°47' W 122°17'0 0.0
2017-Oct-18 16:30N 37°47' W 122°17'0 0.0
2017-Oct-18 15:09N 37°47' W 122°17'0 0.0
2017-Oct-18 15:00N 37°47' W 122°17'  
2017-Oct-15 04:18N 37°47' W 122°17'0 1.4
2017-Oct-15 04:00N 37°48' W 122°17'3 5.4
2017-Oct-15 03:31N 37°48' W 122°20'4 7.4
2017-Oct-15 03:00N 37°50' W 122°25'3 6.2
2017-Oct-15 02:30N 37°49' W 122°28'3 5.8
2017-Oct-15 02:00N 37°49' W 122°25'3 6.6
2017-Oct-15 01:30N 37°48' W 122°21'3 6.9
2017-Oct-15 01:01N 37°47' W 122°17'0 0.0
2017-Oct-15 00:30N 37°47' W 122°17'0 0.0
2017-Oct-14 23:59N 37°47' W 122°17'0 0.0
2017-Oct-14 18:50N 37°47' W 122°17'0 0.0
2017-Oct-14 18:30N 37°47' W 122°17'0 0.0
2017-Oct-14 18:00N 37°47' W 122°17'  
2017-Oct-08 23:59N 37°47' W 122°17'1 2.8
2017-Oct-08 23:31N 37°48' W 122°18'4 7.2
2017-Oct-08 23:00N 37°48' W 122°23'1 2.8
2017-Oct-08 22:30N 37°49' W 122°24'0 0.1
2017-Oct-08 22:00N 37°49' W 122°24'0 0.8
2017-Oct-08 21:30N 37°49' W 122°24'0 0.2
2017-Oct-08 21:00N 37°49' W 122°24'2 3.9
2017-Oct-08 20:30N 37°48' W 122°22'  

Dump ship's entire track history